Time;durP1;ratioP1;P1;durP2;ratioP2;P2;SDS_P1;SDS_P2;PMS_P1;PMS_P2;Temp;Humidity;BMP_temperature;BMP_pressure;BME280_temperature;BME280_humidity;BME280_pressure;Samples;Min_cycle;Max_cycle;Signal;HPM_P1;HPM_P2
2022/11/16 00:01:07;;;;;;;13.07;8.20;;;11.40;99.90;;;;;;5114307;28;20518;-80
2022/11/16 00:03:34;;;;;;;9.80;7.68;;;10.70;99.90;;;;;;5114246;28;20085;-80
2022/11/16 00:06:02;;;;;;;10.75;7.38;;;10.70;99.90;;;;;;5114063;28;20084;-80
2022/11/16 00:08:29;;;;;;;10.75;8.15;;;10.70;99.90;;;;;;5114092;28;20054;-80
2022/11/16 00:11:13;;;;;;;10.63;7.63;;;10.60;99.90;;;;;;5114247;28;20051;-80
2022/11/16 00:13:39;;;;;;;9.68;7.70;;;10.60;99.90;;;;;;5113229;28;20492;-80
2022/11/16 00:16:06;;;;;;;;;;;10.90;99.90;;;;;;5114809;28;20044;-80
2022/11/16 00:18:32;;;;;;;11.50;7.70;;;10.60;99.90;;;;;;5113407;28;19927;-80
2022/11/16 00:20:57;;;;;;;11.98;8.05;;;10.90;99.90;;;;;;5114125;28;20043;-80
2022/11/16 00:23:23;;;;;;;10.88;7.78;;;10.20;99.90;;;;;;5114108;28;20062;-80
2022/11/16 00:25:49;;;;;;;12.95;7.90;;;9.80;99.90;;;;;;5114170;28;20042;-80
2022/11/16 00:28:15;;;;;;;10.50;8.18;;;10.60;99.90;;;;;;5113931;28;20040;-80
2022/11/16 00:30:40;;;;;;;10.23;7.60;;;10.60;99.90;;;;;;5114434;28;20063;-80
2022/11/16 00:33:07;;;;;;;14.80;8.27;;;10.40;99.90;;;;;;5114422;28;20040;-80
2022/11/16 00:35:39;;;;;;;12.27;7.32;;;11.40;99.90;;;;;;5113710;28;20075;-80
2022/11/16 00:38:05;;;;;;;10.23;7.70;;;10.70;99.90;;;;;;5114024;28;20089;-80
2022/11/16 00:40:31;;;;;;;9.90;7.75;;;10.60;99.90;;;;;;5113930;28;20043;-80
2022/11/16 00:42:56;;;;;;;12.82;8.48;;;10.60;99.90;;;;;;5114029;28;20043;-80
2022/11/16 00:45:22;;;;;;;9.25;7.75;;;10.50;99.90;;;;;;5114390;28;20051;-80
2022/11/16 00:47:47;;;;;;;10.18;7.53;;;10.30;99.90;;;;;;5112804;28;20044;-80
2022/11/16 00:50:13;;;;;;;9.95;7.55;;;10.60;99.90;;;;;;5113767;28;20086;-80
2022/11/16 00:52:39;;;;;;;9.45;7.65;;;10.60;99.90;;;;;;5113992;28;20079;-80
2022/11/16 00:55:05;;;;;;;10.45;7.53;;;11.10;99.90;;;;;;5114345;28;20083;-80
2022/11/16 00:57:30;;;;;;;11.13;7.90;;;10.60;99.90;;;;;;5114334;28;20055;-80
2022/11/16 00:59:56;;;;;;;10.15;7.30;;;10.30;99.90;;;;;;5113824;28;20071;-80
2022/11/16 01:02:22;;;;;;;10.93;7.55;;;10.40;99.90;;;;;;5113850;28;20491;-80
2022/11/16 01:04:47;;;;;;;9.50;7.50;;;10.70;99.90;;;;;;5113778;28;20066;-80
2022/11/16 01:07:13;;;;;;;9.13;7.53;;;10.30;99.90;;;;;;5113673;28;20035;-80
2022/11/16 01:09:38;;;;;;;9.27;7.63;;;10.20;99.90;;;;;;5113423;28;20470;-80
2022/11/16 01:12:11;;;;;;;9.98;7.38;;;10.70;99.90;;;;;;5112382;28;20042;-80
2022/11/16 01:14:44;;;;;;;9.10;7.20;;;11.30;99.90;;;;;;5115647;28;20079;-80
2022/11/16 01:17:10;;;;;;;13.48;8.10;;;10.30;99.90;;;;;;5117472;28;20128;-80
2022/11/16 01:19:36;;;;;;;9.35;7.00;;;10.70;99.90;;;;;;5117661;28;20115;-80
2022/11/16 01:22:02;;;;;;;9.43;7.50;;;10.60;99.90;;;;;;5116158;28;20036;-80
2022/11/16 01:24:28;;;;;;;10.00;7.35;;;10.70;99.90;;;;;;5117396;28;20040;-80
2022/11/16 01:26:57;;;;;;;13.73;7.60;;;10.70;99.90;;;;;;5117074;28;20035;-80
2022/11/16 01:29:27;;;;;;;9.82;7.05;;;11.20;99.90;;;;;;5117484;28;20047;-80
2022/11/16 01:31:53;;;;;;;10.07;7.07;;;10.80;99.90;;;;;;5117938;28;20498;-80
2022/11/16 01:34:19;;;;;;;9.52;7.28;;;10.80;99.90;;;;;;5117192;27;20043;-80
2022/11/16 01:36:44;;;;;;;10.93;6.70;;;10.80;99.90;;;;;;5117033;28;20081;-80
2022/11/16 01:39:12;;;;;;;9.60;7.07;;;10.80;99.90;;;;;;5116955;28;20092;-80
2022/11/16 01:41:38;;;;;;;12.30;6.50;;;11.40;99.90;;;;;;5117241;28;20055;-80
2022/11/16 01:44:25;;;;;;;12.02;6.78;;;10.80;99.90;;;;;;5116926;28;20047;-80
2022/11/16 01:46:50;;;;;;;9.50;6.70;;;10.80;99.90;;;;;;5116716;28;20134;-80
2022/11/16 01:49:20;;;;;;;9.05;6.65;;;11.00;99.90;;;;;;5116981;28;20127;-81
2022/11/16 01:51:50;;;;;;;12.88;6.78;;;10.80;99.90;;;;;;5116771;28;20090;-80
2022/11/16 01:54:15;;;;;;;10.23;6.38;;;10.70;99.90;;;;;;5116737;28;20131;-81
2022/11/16 01:56:44;;;;;;;9.35;6.60;;;10.80;99.90;;;;;;5116645;28;20126;-81
2022/11/16 01:59:12;;;;;;;11.10;6.63;;;11.60;99.90;;;;;;5116613;28;20039;-80
2022/11/16 02:01:37;;;;;;;10.38;6.95;;;10.70;99.90;;;;;;5116489;28;20510;-81
2022/11/16 02:04:03;;;;;;;9.13;6.53;;;10.70;99.90;;;;;;5116543;28;20040;-80
2022/11/16 02:06:51;;;;;;;8.07;6.40;;;10.70;99.90;;;;;;5116655;28;20499;-81
2022/11/16 02:09:54;;;;;;;8.80;6.85;;;10.70;99.90;;;;;;5115589;28;20047;-81
2022/11/16 02:12:22;;;;;;;8.75;6.43;;;10.70;99.90;;;;;;5116445;28;20043;-80
2022/11/16 02:15:05;;;;;;;10.73;6.68;;;10.70;99.90;;;;;;5116252;28;20483;-81
2022/11/16 02:17:43;;;;;;;7.97;6.00;;;10.70;99.90;;;;;;5116533;28;20035;-81
2022/11/16 02:20:31;;;;;;;9.25;6.88;;;10.70;99.90;;;;;;5116112;28;20043;-81
2022/11/16 02:23:34;;;;;;;10.27;6.53;;;10.70;99.90;;;;;;5116300;28;20043;-81
2022/11/16 02:26:30;;;;;;;11.00;6.20;;;10.70;99.90;;;;;;5114895;28;20055;-81
2022/11/16 02:29:09;;;;;;;8.38;6.05;;;10.70;99.90;;;;;;5116033;28;20043;-81
2022/11/16 02:31:40;;;;;;;9.25;6.82;;;10.70;99.90;;;;;;5116514;28;20060;-81
2022/11/16 02:34:09;;;;;;;7.70;6.13;;;10.70;99.90;;;;;;5119358;28;20547;-80
2022/11/16 02:36:39;;;;;;;9.27;6.10;;;10.70;99.90;;;;;;5116426;28;20047;-81
2022/11/16 02:39:10;;;;;;;10.68;6.60;;;10.70;99.90;;;;;;5115874;28;20040;-81
2022/11/16 02:41:38;;;;;;;10.07;6.60;;;10.70;99.90;;;;;;5115957;28;20387;-81
2022/11/16 02:44:12;;;;;;;9.02;6.32;;;10.70;99.90;;;;;;5115674;28;20077;-80
2022/11/16 02:46:42;;;;;;;8.00;6.68;;;10.70;99.90;;;;;;5098350;28;20129;-81
2022/11/16 02:49:13;;;;;;;8.75;6.57;;;10.60;99.90;;;;;;5115575;28;20086;-81
2022/11/16 02:51:40;;;;;;;12.00;6.50;;;10.60;99.90;;;;;;5115801;28;20372;-81
2022/11/16 02:54:18;;;;;;;13.43;6.90;;;10.60;99.90;;;;;;5115515;28;20040;-81
2022/11/16 02:57:01;;;;;;;8.98;6.55;;;10.60;99.90;;;;;;5115600;28;20083;-81
2022/11/16 02:59:33;;;;;;;10.63;6.75;;;10.60;99.90;;;;;;5115258;28;20546;-81
2022/11/16 03:02:24;;;;;;;8.85;6.63;;;10.60;99.90;;;;;;5115479;28;20043;-81
2022/11/16 03:04:56;;;;;;;8.90;6.97;;;10.60;99.90;;;;;;5115371;28;20043;-80
2022/11/16 03:07:30;;;;;;;9.18;6.38;;;10.60;99.90;;;;;;5115841;28;20036;-80
2022/11/16 03:09:58;;;;;;;8.05;6.80;;;10.60;99.90;;;;;;5115230;28;20044;-80
2022/11/16 03:12:30;;;;;;;9.07;6.70;;;10.60;99.90;;;;;;5115207;28;20105;-81
2022/11/16 03:15:03;;;;;;;9.43;6.97;;;10.60;99.90;;;;;;5115060;28;20503;-80
2022/11/16 03:17:39;;;;;;;12.35;7.38;;;10.60;99.90;;;;;;5114998;28;20044;-80
2022/11/16 03:20:19;;;;;;;12.90;6.97;;;10.60;99.90;;;;;;5115188;28;20039;-81
2022/11/16 03:22:53;;;;;;;9.30;6.90;;;10.60;99.90;;;;;;5115328;28;20085;-80
2022/11/16 03:25:21;;;;;;;11.95;7.93;;;10.60;99.90;;;;;;5115097;28;20043;-80
2022/11/16 03:27:52;;;;;;;13.40;7.47;;;10.20;99.90;;;;;;5114775;28;20143;-80
2022/11/16 03:30:23;;;;;;;12.43;7.72;;;10.60;99.90;;;;;;5114415;28;20483;-80
2022/11/16 03:32:48;;;;;;;12.15;8.50;;;10.50;99.90;;;;;;5115383;28;20052;-80
2022/11/16 03:35:22;;;;;;;9.27;7.35;;;10.50;99.90;;;;;;5117548;28;20050;-80
2022/11/16 03:37:51;;;;;;;11.20;8.13;;;10.60;99.90;;;;;;5114082;28;20472;-80
2022/11/16 03:40:18;;;;;;;12.05;8.02;;;10.40;99.90;;;;;;5113365;28;20040;-80
2022/11/16 03:42:45;;;;;;;12.13;8.75;;;10.50;99.90;;;;;;5115044;28;20052;-81
2022/11/16 03:45:11;;;;;;;;;;;10.50;99.90;;;;;;5115079;28;20051;-81
2022/11/16 03:47:37;;;;;;;11.90;8.05;;;10.50;99.90;;;;;;5114813;28;19920;-81
2022/11/16 03:50:03;;;;;;;12.90;8.35;;;10.00;99.90;;;;;;5114538;28;20043;-81
2022/11/16 03:52:28;;;;;;;12.65;8.50;;;10.50;99.90;;;;;;5113650;28;20043;-81
2022/11/16 03:54:54;;;;;;;13.07;8.13;;;10.50;99.90;;;;;;5114559;28;20054;-81
2022/11/16 03:57:19;;;;;;;12.02;7.68;;;10.50;99.90;;;;;;5114259;28;20534;-81
2022/11/16 03:59:45;;;;;;;11.32;8.15;;;10.50;99.90;;;;;;5114338;28;20039;-81
2022/11/16 04:02:11;;;;;;;12.23;8.50;;;10.50;99.90;;;;;;5114811;28;20049;-80
2022/11/16 04:29:17;;;;;;;14.40;9.55;;;10.40;99.90;;;;;;5114351;28;20047;-80
2022/11/16 04:39:58;;;;;;;14.15;9.68;;;10.30;99.90;;;;;;5114424;28;20055;-81
2022/11/16 04:42:24;;;;;;;16.52;10.35;;;10.30;99.90;;;;;;5114091;28;20040;-81
2022/11/16 04:47:34;;;;;;;14.13;10.13;;;10.30;99.90;;;;;;5113824;28;20047;-81
2022/11/16 04:49:59;;;;;;;15.57;10.35;;;10.30;99.90;;;;;;5116342;28;20043;-81
2022/11/16 04:52:25;;;;;;;12.60;9.60;;;10.20;99.90;;;;;;5117999;28;20035;-81
2022/11/16 04:54:51;;;;;;;12.98;9.50;;;10.10;99.90;;;;;;5118234;28;20040;-81
2022/11/16 04:57:16;;;;;;;17.70;10.70;;;10.50;99.90;;;;;;5117888;28;20483;-81
2022/11/16 04:59:42;;;;;;;21.75;11.00;;;10.10;99.90;;;;;;5117743;28;20049;-81
2022/11/16 05:02:07;;;;;;;16.63;10.52;;;10.20;99.90;;;;;;5117507;28;20050;-81
2022/11/16 05:04:34;;;;;;;14.40;9.73;;;10.30;99.90;;;;;;5118180;28;20051;-80
2022/11/16 05:07:00;;;;;;;20.38;11.23;;;10.20;99.90;;;;;;5117614;28;20050;-81
2022/11/16 05:09:25;;;;;;;16.55;10.60;;;10.30;99.90;;;;;;5117125;28;20051;-81
2022/11/16 05:11:51;;;;;;;15.32;11.60;;;10.20;99.90;;;;;;5117528;28;20130;-81
2022/11/16 05:14:16;;;;;;;15.32;11.32;;;10.20;99.90;;;;;;5117479;28;20054;-80
2022/11/16 05:16:42;;;;;;;15.27;10.55;;;10.40;99.90;;;;;;5117149;28;20646;-80
2022/11/16 05:21:52;;;;;;;15.35;11.13;;;10.20;99.90;;;;;;5116152;28;20407;-81
2022/11/16 05:24:32;;;;;;;16.98;11.32;;;10.20;99.90;;;;;;5117378;28;20051;-81
2022/11/16 05:27:06;;;;;;;18.15;12.02;;;10.20;99.90;;;;;;5117298;28;20043;-81
2022/11/16 05:29:32;;;;;;;15.45;11.60;;;10.20;99.90;;;;;;5117249;28;20043;-80
2022/11/16 05:31:58;;;;;;;17.23;12.30;;;10.20;99.90;;;;;;5116852;28;20066;-80
2022/11/16 05:34:24;;;;;;;14.63;11.37;;;10.20;99.90;;;;;;5117327;28;20079;-80
2022/11/16 05:36:50;;;;;;;16.13;11.67;;;10.90;99.90;;;;;;5117275;28;20410;-80
2022/11/16 05:39:16;;;;;;;14.70;10.98;;;10.20;99.90;;;;;;5117290;28;20089;-80
2022/11/16 05:41:42;;;;;;;14.77;11.65;;;9.60;99.90;;;;;;5116681;28;20039;-80
2022/11/16 05:44:07;;;;;;;17.08;13.13;;;10.80;99.90;;;;;;5116669;28;20122;-81
2022/11/16 05:46:33;;;;;;;16.27;12.15;;;10.50;99.90;;;;;;5116871;28;20083;-81
2022/11/16 05:48:59;;;;;;;16.83;11.55;;;10.20;99.90;;;;;;5116703;28;20383;-80
2022/11/16 05:51:24;;;;;;;15.60;12.25;;;10.20;99.90;;;;;;5116907;28;20035;-80
2022/11/16 05:53:50;;;;;;;17.27;12.10;;;10.20;99.90;;;;;;5116536;28;20044;-80
2022/11/16 05:56:16;;;;;;;17.30;12.48;;;10.20;99.90;;;;;;5116620;28;20446;-81
2022/11/16 05:58:42;;;;;;;17.23;12.63;;;10.20;99.90;;;;;;5116808;28;20041;-81
2022/11/16 06:01:09;;;;;;;17.77;12.60;;;10.20;99.90;;;;;;5115613;28;20039;-81
2022/11/16 06:03:35;;;;;;;18.90;12.47;;;10.20;99.90;;;;;;5116578;28;20083;-80
2022/11/16 06:06:02;;;;;;;18.20;12.37;;;10.20;99.90;;;;;;5116559;28;20277;-81
2022/11/16 06:08:28;;;;;;;16.63;12.40;;;10.20;99.90;;;;;;5116435;28;20337;-81
2022/11/16 06:10:53;;;;;;;18.10;12.70;;;9.80;99.90;;;;;;5116531;28;20480;-80
2022/11/16 06:13:19;;;;;;;21.25;12.88;;;10.20;99.90;;;;;;5116779;28;20043;-81
2022/11/16 06:15:45;;;;;;;18.48;12.88;;;10.20;99.90;;;;;;5116651;28;20449;-80
2022/11/16 06:18:10;;;;;;;18.15;12.85;;;10.20;99.90;;;;;;5116038;28;20074;-80
2022/11/16 06:20:38;;;;;;;20.15;12.52;;;9.50;99.90;;;;;;5115372;28;20113;-80
2022/11/16 06:23:05;;;;;;;16.27;12.55;;;10.50;99.90;;;;;;5116269;28;20055;-80
2022/11/16 06:25:30;;;;;;;18.52;12.88;;;10.20;99.90;;;;;;5116209;28;20088;-80
2022/11/16 06:27:57;;;;;;;16.23;12.85;;;10.20;99.90;;;;;;5115932;28;20475;-80
2022/11/16 06:30:23;;;;;;;18.00;12.90;;;10.20;99.90;;;;;;5116204;28;20052;-80
2022/11/16 06:32:49;;;;;;;18.15;12.80;;;10.20;99.90;;;;;;5115081;28;20483;-80
2022/11/16 06:35:15;;;;;;;16.42;12.32;;;10.20;99.90;;;;;;5115766;28;20039;-80
2022/11/16 06:37:41;;;;;;;19.38;13.57;;;10.30;99.90;;;;;;5115949;28;20056;-80
2022/11/16 06:40:08;;;;;;;17.65;13.25;;;10.30;99.90;;;;;;5117118;28;20395;-80
2022/11/16 06:42:33;;;;;;;20.60;14.48;;;10.30;99.90;;;;;;5115712;28;20403;-80
2022/11/16 06:44:59;;;;;;;18.63;13.88;;;10.30;99.90;;;;;;5114996;28;20035;-81
2022/11/16 06:47:24;;;;;;;19.50;13.93;;;9.90;99.90;;;;;;5115726;28;20043;-80
2022/11/16 06:49:50;;;;;;;23.58;14.48;;;10.30;99.90;;;;;;5115604;28;20051;-79
2022/11/16 06:52:15;;;;;;;21.52;14.95;;;10.60;99.90;;;;;;5115282;28;20407;-81
2022/11/16 06:54:41;;;;;;;19.70;13.73;;;10.30;99.90;;;;;;5115443;28;20044;-82
2022/11/16 06:57:06;;;;;;;19.70;13.60;;;10.30;99.90;;;;;;5115904;28;20043;-80
2022/11/16 06:59:32;;;;;;;21.50;14.52;;;10.30;99.90;;;;;;5115391;28;20050;-78
2022/11/16 07:01:58;;;;;;;19.65;13.55;;;10.30;99.90;;;;;;5115833;28;20051;-79
2022/11/16 07:04:23;;;;;;;21.02;12.73;;;10.70;99.90;;;;;;5115362;28;20051;-79
2022/11/16 07:06:49;;;;;;;21.33;13.48;;;9.90;99.90;;;;;;5115224;28;20035;-79
2022/11/16 07:09:14;;;;;;;19.60;13.57;;;10.30;99.90;;;;;;5115013;28;20093;-78
2022/11/16 07:11:40;;;;;;;17.92;11.93;;;10.30;99.90;;;;;;5114584;28;20500;-79
2022/11/16 07:14:06;;;;;;;16.98;12.88;;;10.30;99.90;;;;;;5114028;28;20499;-79
2022/11/16 07:16:34;;;;;;;20.13;13.52;;;10.50;99.90;;;;;;5115456;28;20039;-80
2022/11/16 07:19:00;;;;;;;18.23;13.82;;;10.30;99.90;;;;;;5115091;28;20225;-79
2022/11/16 07:21:26;;;;;;;19.48;13.95;;;10.30;99.90;;;;;;5115075;28;20532;-84
2022/11/16 07:23:52;;;;;;;17.85;13.65;;;10.60;99.90;;;;;;5097024;28;20044;-80
2022/11/16 07:26:18;;;;;;;19.67;13.57;;;10.30;99.90;;;;;;5114628;28;20487;-78
2022/11/16 07:28:43;;;;;;;20.60;13.77;;;10.30;99.90;;;;;;5115205;28;20046;-81
2022/11/16 07:31:11;;;;;;;16.88;13.48;;;10.30;99.90;;;;;;5113277;28;20095;-80
2022/11/16 07:33:38;;;;;;;19.58;14.80;;;10.50;99.90;;;;;;5113285;28;20094;-82
2022/11/16 07:36:05;;;;;;;19.30;13.77;;;10.40;99.90;;;;;;5113013;28;20131;-81
2022/11/16 07:38:32;;;;;;;20.50;14.00;;;10.30;99.90;;;;;;5112192;28;20077;-81
2022/11/16 07:41:18;;;;;;;18.92;13.55;;;10.00;99.90;;;;;;5114616;28;20047;-81
2022/11/16 07:43:44;;;;;;;20.50;14.30;;;10.30;99.90;;;;;;5114765;28;20134;-80
2022/11/16 07:46:10;;;;;;;18.05;13.25;;;10.30;99.90;;;;;;5114576;28;20494;-79
2022/11/16 07:48:36;;;;;;;18.38;13.88;;;10.30;99.90;;;;;;5114306;28;20130;-79
2022/11/16 07:51:03;;;;;;;21.65;13.68;;;10.40;99.90;;;;;;5114535;28;20128;-80
2022/11/16 07:53:29;;;;;;;19.02;14.50;;;11.00;99.90;;;;;;5114230;28;20169;-79
2022/11/16 07:55:55;;;;;;;20.38;14.60;;;10.40;99.90;;;;;;5114534;28;20044;-80
2022/11/16 07:58:22;;;;;;;19.20;13.90;;;10.40;99.90;;;;;;5114909;27;20118;-80
2022/11/16 08:00:48;;;;;;;18.55;14.13;;;10.00;99.90;;;;;;5114427;28;20281;-80
2022/11/16 08:03:14;;;;;;;17.88;13.68;;;10.40;99.90;;;;;;5114436;28;20495;-80
2022/11/16 08:05:39;;;;;;;20.43;14.60;;;11.20;99.90;;;;;;5113236;28;20043;-80
2022/11/16 08:08:05;;;;;;;18.45;13.38;;;10.40;99.90;;;;;;5112921;28;20105;-77
2022/11/16 08:10:31;;;;;;;21.35;13.57;;;10.40;99.90;;;;;;5114213;28;20048;-80
2022/11/16 08:12:56;;;;;;;18.42;13.60;;;9.90;99.90;;;;;;5113351;28;20086;-80
2022/11/16 08:15:23;;;;;;;25.13;14.52;;;10.90;99.90;;;;;;5114123;28;20051;-79
2022/11/16 08:17:49;;;;;;;22.17;14.13;;;10.40;99.90;;;;;;5114066;28;20044;-76
2022/11/16 08:20:15;;;;;;;18.13;14.43;;;10.40;99.90;;;;;;5114315;28;20046;-84
2022/11/16 08:22:41;;;;;;;20.13;14.23;;;10.40;99.90;;;;;;5113031;28;20040;-79
2022/11/16 08:25:07;;;;;;;17.83;13.77;;;10.40;99.90;;;;;;5116735;28;20046;-79
2022/11/16 08:27:34;;;;;;;19.08;14.50;;;10.40;99.90;;;;;;5118267;28;20467;-79
2022/11/16 08:30:01;;;;;;;20.37;14.80;;;10.40;99.90;;;;;;5118200;28;20063;-79
2022/11/16 08:32:28;;;;;;;18.52;13.73;;;10.20;99.90;;;;;;5118419;27;20047;-79
2022/11/16 08:34:54;;;;;;;19.92;14.40;;;10.40;99.90;;;;;;5118332;28;20047;-79
2022/11/16 08:37:19;;;;;;;18.38;14.02;;;10.50;99.90;;;;;;5117060;28;20109;-79
2022/11/16 08:39:45;;;;;;;21.88;14.20;;;10.50;99.90;;;;;;5117357;28;20046;-79
2022/11/16 08:42:11;;;;;;;21.95;14.05;;;11.10;99.90;;;;;;5118691;28;20130;-79
2022/11/16 08:44:36;;;;;;;23.15;14.63;;;10.10;99.90;;;;;;5118131;28;20045;-79
2022/11/16 08:47:02;;;;;;;18.08;14.02;;;10.50;99.90;;;;;;5117913;28;20398;-79
2022/11/16 08:49:28;;;;;;;20.27;15.50;;;10.60;99.90;;;;;;5118152;28;20109;-79
2022/11/16 08:51:53;;;;;;;21.10;14.95;;;10.60;99.90;;;;;;5118018;28;20040;-80
2022/11/16 08:54:19;;;;;;;19.20;14.32;;;10.60;99.90;;;;;;5117100;28;20043;-79
2022/11/16 08:56:45;;;;;;;19.88;15.32;;;10.60;99.90;;;;;;5116729;28;20130;-79
2022/11/16 08:59:11;;;;;;;24.67;15.18;;;10.70;99.90;;;;;;5117874;28;20036;-79
2022/11/16 09:01:37;;;;;;;19.30;16.10;;;10.70;99.90;;;;;;5117673;28;20131;-79
2022/11/16 09:04:02;;;;;;;22.48;15.50;;;10.80;99.90;;;;;;5117743;28;20126;-79
2022/11/16 09:06:28;;;;;;;20.77;14.93;;;10.80;99.90;;;;;;5117585;28;20411;-79
2022/11/16 09:08:54;;;;;;;19.85;15.70;;;10.80;99.90;;;;;;5117792;28;20467;-80
2022/11/16 09:11:22;;;;;;;24.10;16.50;;;10.80;99.90;;;;;;5117629;28;20406;-79
2022/11/16 09:13:49;;;;;;;20.92;16.00;;;10.80;99.90;;;;;;5117396;28;20047;-79
2022/11/16 09:16:15;;;;;;;21.38;15.50;;;11.50;99.90;;;;;;5116754;28;20375;-80
2022/11/16 09:18:42;;;;;;;23.00;15.63;;;11.00;99.90;;;;;;5134524;27;20046;-79
2022/11/16 09:21:08;;;;;;;23.17;15.57;;;11.00;99.90;;;;;;5137720;27;20049;-80
2022/11/16 09:23:33;;;;;;;19.42;14.68;;;11.00;99.90;;;;;;5137864;27;20125;-80
2022/11/16 09:26:03;;;;;;;20.95;14.95;;;11.40;99.90;;;;;;5137799;27;20043;-80
2022/11/16 09:28:29;;;;;;;19.88;14.57;;;11.10;99.90;;;;;;5137753;27;20043;-80
2022/11/16 09:31:00;;;;;;;19.83;14.00;;;10.90;99.90;;;;;;5137188;27;20126;-79
2022/11/16 09:33:28;;;;;;;19.52;14.32;;;11.00;99.90;;;;;;5137681;27;20095;-80
2022/11/16 09:35:53;;;;;;;17.30;12.98;;;11.20;99.90;;;;;;5136552;27;20421;-80
2022/11/16 09:38:19;;;;;;;18.38;13.65;;;11.80;99.90;;;;;;5137435;27;20088;-79
2022/11/16 09:40:46;;;;;;;20.17;12.65;;;10.70;99.90;;;;;;5137214;27;20049;-83
2022/11/16 09:43:38;;;;;;;17.27;12.75;;;11.20;99.90;;;;;;5137360;27;20043;-79
2022/11/16 09:46:25;;;;;;;16.85;12.80;;;11.20;99.90;;;;;;5137478;27;20066;-79
2022/11/16 09:48:55;;;;;;;16.67;12.48;;;10.90;99.90;;;;;;5137406;27;20039;-82
2022/11/16 09:51:24;;;;;;;17.20;12.55;;;11.00;99.90;;;;;;5137612;27;20458;-79
2022/11/16 09:53:52;;;;;;;15.68;12.43;;;11.40;99.90;;;;;;5137079;27;20058;-80
2022/11/16 09:56:25;;;;;;;17.08;11.73;;;11.40;99.90;;;;;;5136812;27;20050;-79
2022/11/16 09:59:04;;;;;;;16.92;11.30;;;11.50;99.90;;;;;;5136703;27;20057;-81
2022/11/16 10:01:40;;;;;;;17.33;11.88;;;11.60;99.90;;;;;;5136934;27;20054;-83
2022/11/16 10:04:14;;;;;;;14.82;10.50;;;11.60;99.90;;;;;;5137245;27;20077;-80
2022/11/16 10:06:50;;;;;;;14.85;10.63;;;11.70;99.90;;;;;;5136849;27;20043;-83
2022/11/16 10:09:16;;;;;;;15.77;10.38;;;11.70;99.90;;;;;;5136427;27;20100;-79
2022/11/16 10:11:57;;;;;;;14.05;9.38;;;11.80;99.90;;;;;;5136656;27;20500;-81
2022/11/16 10:14:23;;;;;;;12.73;8.82;;;11.80;99.90;;;;;;5136774;27;20471;-80
2022/11/16 10:16:58;;;;;;;15.23;8.27;;;11.70;99.90;;;;;;5135640;27;20046;-79
2022/11/16 10:19:42;;;;;;;11.30;7.95;;;11.80;99.90;;;;;;5135786;27;20051;-79
2022/11/16 10:22:34;;;;;;;11.68;8.20;;;11.90;99.90;;;;;;5135639;27;20051;-77
2022/11/16 10:25:10;;;;;;;11.52;7.50;;;11.80;99.90;;;;;;5136689;27;20122;-83
2022/11/16 10:28:09;;;;;;;9.43;7.32;;;11.50;99.90;;;;;;5136576;27;20424;-78
2022/11/16 10:30:44;;;;;;;12.27;7.97;;;11.90;99.90;;;;;;5136262;27;20047;-75
2022/11/16 10:33:17;;;;;;;13.10;7.60;;;11.60;99.90;;;;;;5136732;27;20055;-77
2022/11/16 10:35:47;;;;;;;12.02;7.10;;;12.00;99.90;;;;;;5136307;27;20047;-79
2022/11/16 10:38:16;;;;;;;9.70;6.93;;;12.30;99.90;;;;;;5136291;27;20389;-81
2022/11/16 10:40:45;;;;;;;11.15;7.15;;;12.10;99.90;;;;;;5136297;27;20085;-84
2022/11/16 10:43:14;;;;;;;15.57;7.40;;;12.20;99.90;;;;;;5136284;27;20051;-81
2022/11/16 10:45:54;;;;;;;11.75;7.00;;;12.20;99.90;;;;;;5138677;27;20058;-81
2022/11/16 10:49:02;;;;;;;8.65;6.78;;;12.30;99.90;;;;;;5134241;27;20398;-84
2022/11/16 10:51:28;;;;;;;11.40;6.05;;;12.20;99.90;;;;;;5135526;27;20051;-81
2022/11/16 10:53:54;;;;;;;14.13;6.53;;;12.20;99.90;;;;;;5135865;27;20043;-80
2022/11/16 10:56:29;;;;;;;9.00;5.32;;;12.30;99.90;;;;;;5135931;27;20486;-78
2022/11/16 10:59:03;;;;;;;12.50;5.45;;;12.40;99.90;;;;;;5134786;27;20040;-82
2022/11/16 11:01:42;;;;;;;11.48;4.80;;;12.30;99.90;;;;;;5135898;27;20096;-80
2022/11/16 11:04:28;;;;;;;7.57;5.20;;;12.20;99.90;;;;;;5135856;27;20039;-80
2022/11/16 11:06:59;;;;;;;7.05;4.68;;;11.80;99.90;;;;;;5135552;27;20395;-83
2022/11/16 11:09:31;;;;;;;7.55;5.07;;;12.10;99.90;;;;;;5135952;27;20483;-81
2022/11/16 11:15:06;;;;;;;13.38;3.97;;;12.00;99.90;;;;;;5136037;27;20047;-77
2022/11/16 11:17:33;;;;;;;11.45;4.10;;;11.90;99.90;;;;;;5135515;27;20043;-78
2022/11/16 11:20:15;;;;;;;10.45;4.00;;;12.00;99.90;;;;;;5135269;27;20481;-81
2022/11/16 11:22:56;;;;;;;9.52;3.90;;;12.10;99.90;;;;;;5134379;27;20487;-78
2022/11/16 11:25:27;;;;;;;11.70;4.40;;;12.10;99.90;;;;;;5135656;27;20050;-78
2022/11/16 11:28:05;;;;;;;8.48;4.00;;;12.60;99.90;;;;;;5135072;27;20039;-79
2022/11/16 11:30:32;;;;;;;7.30;3.42;;;13.00;99.90;;;;;;5133722;27;20399;-78
2022/11/16 11:32:58;;;;;;;7.97;3.55;;;12.70;99.90;;;;;;5134993;27;20050;-77
2022/11/16 11:35:29;;;;;;;9.07;3.20;;;12.80;99.90;;;;;;5135286;27;20387;-77
2022/11/16 11:37:58;;;;;;;9.65;3.33;;;12.90;99.90;;;;;;5135246;27;20114;-79
2022/11/16 11:40:25;;;;;;;9.90;3.47;;;12.80;99.90;;;;;;5134915;27;20092;-82
2022/11/16 11:43:02;;;;;;;7.85;3.20;;;12.90;99.90;;;;;;5135018;27;20035;-80
2022/11/16 11:45:52;;;;;;;8.43;3.33;;;12.60;99.90;;;;;;5134461;27;20050;-80
2022/11/16 11:48:46;;;;;;;7.40;3.20;;;13.40;99.90;;;;;;5133907;27;20429;-79
2022/11/16 11:51:21;;;;;;;6.47;2.80;;;13.00;99.90;;;;;;5134899;27;20035;-80
2022/11/16 11:53:56;;;;;;;5.45;2.60;;;13.00;99.90;;;;;;5134631;27;20054;-79
2022/11/16 11:56:23;;;;;;;9.00;2.92;;;13.00;99.90;;;;;;5135082;27;20095;-84
2022/11/16 11:58:50;;;;;;;8.85;2.45;;;13.70;99.90;;;;;;5134356;27;20043;-80
2022/11/16 12:01:35;;;;;;;6.68;3.03;;;13.00;99.90;;;;;;5134887;27;20043;-79
2022/11/16 12:04:22;;;;;;;12.32;3.05;;;13.10;99.90;;;;;;5134390;27;20502;-79
2022/11/16 12:07:24;;;;;;;6.03;2.70;;;13.00;99.90;;;;;;5134676;27;20046;-78
2022/11/16 12:10:14;;;;;;;8.82;3.22;;;13.10;99.90;;;;;;5134523;27;20047;-81
2022/11/16 12:13:13;;;;;;;6.60;2.60;;;13.10;99.90;;;;;;5134415;27;20108;-81
2022/11/16 12:16:04;;;;;;;6.47;2.58;;;13.10;99.90;;;;;;5134372;28;20081;-78
2022/11/16 12:18:49;;;;;;;13.02;3.15;;;13.20;99.90;;;;;;5134345;27;20470;-80
2022/11/16 12:21:31;;;;;;;8.75;2.45;;;13.10;99.90;;;;;;5134363;27;20035;-79
2022/11/16 12:24:08;;;;;;;7.63;2.65;;;12.90;99.90;;;;;;5134534;28;20047;-80
2022/11/16 12:26:53;;;;;;;7.30;2.45;;;13.00;99.90;;;;;;5134381;27;20075;-79
2022/11/16 12:29:33;;;;;;;9.27;2.67;;;13.00;99.90;;;;;;5134109;28;20043;-79
2022/11/16 12:32:24;;;;;;;7.00;2.30;;;12.90;99.90;;;;;;5132723;28;20055;-80
2022/11/16 12:35:09;;;;;;;6.25;2.50;;;12.80;99.90;;;;;;5134190;27;20039;-80
2022/11/16 12:38:00;;;;;;;8.70;2.50;;;12.80;99.90;;;;;;5133169;28;20090;-82
2022/11/16 12:40:57;;;;;;;7.97;2.45;;;12.80;99.90;;;;;;5133187;28;20074;-80
2022/11/16 12:43:56;;;;;;;12.25;2.95;;;12.80;99.90;;;;;;5134386;28;20047;-80
2022/11/16 12:47:03;;;;;;;6.95;2.40;;;12.70;99.90;;;;;;5115549;28;20047;-81
2022/11/16 12:50:02;;;;;;;6.45;2.20;;;12.70;99.90;;;;;;5114532;28;20173;-78
2022/11/16 12:52:37;;;;;;;7.32;2.30;;;12.60;99.90;;;;;;5113850;28;20043;-83
2022/11/16 12:55:12;;;;;;;7.18;2.40;;;12.60;99.90;;;;;;5112550;28;20475;-81
2022/11/16 12:57:59;;;;;;;4.63;2.40;;;12.90;99.90;;;;;;5113737;28;20439;-75
2022/11/16 13:00:27;;;;;;;10.15;2.70;;;12.40;99.90;;;;;;5113871;28;20044;-81
2022/11/16 13:03:20;;;;;;;9.27;2.90;;;12.30;99.90;;;;;;5128740;28;20074;-80
2022/11/16 13:06:04;;;;;;;12.30;2.88;;;12.30;99.90;;;;;;5133257;27;20096;-81
2022/11/16 13:08:57;;;;;;;9.15;2.72;;;12.50;99.90;;;;;;5134365;27;20049;-81
2022/11/16 13:11:34;;;;;;;8.18;2.50;;;12.20;99.90;;;;;;5137578;27;20047;-80
2022/11/16 13:14:04;;;;;;;14.68;2.53;;;12.10;99.90;;;;;;5138593;27;20383;-81
2022/11/16 13:16:30;;;;;;;9.18;2.53;;;12.20;99.90;;;;;;5138031;27;20095;-81
2022/11/16 13:18:57;;;;;;;7.18;2.38;;;12.00;99.90;;;;;;5138152;27;20409;-81
2022/11/16 13:21:36;;;;;;;11.57;2.40;;;11.90;99.90;;;;;;5137893;27;20043;-81
2022/11/16 13:24:08;;;;;;;10.82;2.80;;;11.80;99.90;;;;;;5138360;27;20043;-81
2022/11/16 13:27:04;;;;;;;10.30;2.53;;;11.80;99.90;;;;;;5138156;27;20126;-81
2022/11/16 13:29:39;;;;;;;14.02;2.50;;;11.80;99.90;;;;;;5137673;27;20049;-81
2022/11/16 13:32:45;;;;;;;9.52;2.80;;;11.80;99.90;;;;;;5137625;27;20043;-80
2022/11/16 13:35:15;;;;;;;12.32;2.50;;;11.80;99.90;;;;;;5137358;27;20499;-81
2022/11/16 13:37:43;;;;;;;12.88;2.70;;;12.00;99.90;;;;;;5137465;27;20081;-80